W K Kellogg Airport
KBTL : now visible

Airfield :











YOU CAN JOIN US ON...

 
LOGIN :

Register | Disclaimer

   EN    FR    IT 

 









Legend :    VFR   Marginal VFR   IFR   Intensive IFR   Very Intensive IFR
Visi :
Ceiling :
>= 8 km
>= 3000ft
5 to 8 km
1000 to 3000 ft
1500m to 5 km
500 to 1000 ft
800 to 1500m
200 to 500 ft
< 800m
< 200 ft
Symbols :   Thunderstorms  Fog  Heavy snow  Heavy precipitations  Wind > 20 kt






- Airport Elevation : 952 ft


KBTL - W K Kellogg

CURRENT METAR :
  • 211453Z 28011KT 10SM OVC014 10/07 A3017 RMK AO2 SLP219 T01000072 52030 $

EXPIRED METARs :
  • 211413Z 28014G20KT 10SM OVC014 10/07 A3014 RMK AO2 T01000072 $
  • 211353Z 28015G21KT 10SM OVC015 10/07 A3014 RMK AO2 SLP207 T01000067 $
  • 211253Z 27014G19KT 10SM OVC016 10/07 A3011 RMK AO2 PK WND 25027/1200 SLP198 T01000072 $

TAF KBTL
Valid from the 21 at 15:00 until the 22 at 12:00 UTC


211506Z 2115/2212 28011KT P6SM BKN015
FM211600 27010KT P6SM BKN025
FM211800 27010KT P6SM SCT025 BKN250
FM220000 VRB03KT P6SM OVC100
FM220500 VRB03KT P6SM VCSH BKN080
FM220700 05006KT 5SM -SHRA BR OVC025
KZAU FIR / North America



MET'MAP, your aeronautical weather chart ! - Copyright ORBIFLY December 2007 - Disclaimer

ORBIFLY MET'MAP TEAM :

Programming & Development : Alexandra Zaïnal
Concept & original design : Baudouin d'Aumeries
Assistance for programming : Marc-Olivier Méhu
Technical & hardware support : Manuel Goepfert

Contact : metmap@orbifly.com




SOURCES & CREDITS :

   NOAA       Earth
Advisory